sensor_id;sensor_type;location;lat;lon;timestamp;P1;durP1;ratioP1;P2;durP2;ratioP2
5379;SDS011;2713;42.680;23.310;2024-02-14T00:00:02;5.83;;;5.30;;
5379;SDS011;2713;42.680;23.310;2024-02-14T00:02:30;6.07;;;4.90;;
5379;SDS011;2713;42.680;23.310;2024-02-14T00:04:56;5.67;;;5.07;;
5379;SDS011;2713;42.680;23.310;2024-02-14T00:07:23;5.93;;;5.30;;
5379;SDS011;2713;42.680;23.310;2024-02-14T00:09:52;6.27;;;5.63;;
5379;SDS011;2713;42.680;23.310;2024-02-14T00:12:20;5.47;;;4.97;;
5379;SDS011;2713;42.680;23.310;2024-02-14T00:14:48;6.70;;;6.10;;
5379;SDS011;2713;42.680;23.310;2024-02-14T00:17:15;6.73;;;5.60;;
5379;SDS011;2713;42.680;23.310;2024-02-14T00:19:42;6.03;;;5.47;;
5379;SDS011;2713;42.680;23.310;2024-02-14T00:22:08;6.77;;;6.07;;
5379;SDS011;2713;42.680;23.310;2024-02-14T00:24:35;6.70;;;6.00;;
5379;SDS011;2713;42.680;23.310;2024-02-14T00:27:02;7.30;;;5.90;;
5379;SDS011;2713;42.680;23.310;2024-02-14T00:29:31;7.27;;;6.33;;
5379;SDS011;2713;42.680;23.310;2024-02-14T00:31:59;6.97;;;6.27;;
5379;SDS011;2713;42.680;23.310;2024-02-14T00:34:26;5.80;;;5.20;;
5379;SDS011;2713;42.680;23.310;2024-02-14T00:36:52;8.93;;;5.43;;
5379;SDS011;2713;42.680;23.310;2024-02-14T00:39:19;7.20;;;5.40;;
5379;SDS011;2713;42.680;23.310;2024-02-14T00:41:46;6.33;;;5.70;;
5379;SDS011;2713;42.680;23.310;2024-02-14T00:44:13;6.57;;;5.80;;
5379;SDS011;2713;42.680;23.310;2024-02-14T00:46:43;7.07;;;5.90;;
5379;SDS011;2713;42.680;23.310;2024-02-14T00:49:10;6.70;;;6.03;;
5379;SDS011;2713;42.680;23.310;2024-02-14T00:51:37;7.27;;;5.73;;
5379;SDS011;2713;42.680;23.310;2024-02-14T00:54:05;6.33;;;5.73;;
5379;SDS011;2713;42.680;23.310;2024-02-14T00:56:32;6.67;;;5.50;;
5379;SDS011;2713;42.680;23.310;2024-02-14T00:58:59;8.23;;;6.40;;
5379;SDS011;2713;42.680;23.310;2024-02-14T01:01:26;6.20;;;5.53;;
5379;SDS011;2713;42.680;23.310;2024-02-14T01:03:54;6.70;;;5.90;;
5379;SDS011;2713;42.680;23.310;2024-02-14T01:06:21;8.60;;;6.13;;
5379;SDS011;2713;42.680;23.310;2024-02-14T01:08:48;7.60;;;6.10;;
5379;SDS011;2713;42.680;23.310;2024-02-14T01:11:14;6.83;;;6.13;;
5379;SDS011;2713;42.680;23.310;2024-02-14T01:13:41;8.20;;;6.50;;
5379;SDS011;2713;42.680;23.310;2024-02-14T01:16:08;7.07;;;6.20;;
5379;SDS011;2713;42.680;23.310;2024-02-14T01:18:35;7.37;;;6.00;;
5379;SDS011;2713;42.680;23.310;2024-02-14T01:21:03;10.73;;;6.10;;
5379;SDS011;2713;42.680;23.310;2024-02-14T01:23:31;8.67;;;6.47;;
5379;SDS011;2713;42.680;23.310;2024-02-14T01:25:57;7.77;;;5.90;;
5379;SDS011;2713;42.680;23.310;2024-02-14T01:28:24;6.50;;;5.63;;
5379;SDS011;2713;42.680;23.310;2024-02-14T01:30:51;8.67;;;6.23;;
5379;SDS011;2713;42.680;23.310;2024-02-14T01:33:18;7.70;;;6.23;;
5379;SDS011;2713;42.680;23.310;2024-02-14T01:35:45;7.37;;;6.00;;
5379;SDS011;2713;42.680;23.310;2024-02-14T01:38:13;8.97;;;6.10;;
5379;SDS011;2713;42.680;23.310;2024-02-14T01:40:42;9.20;;;7.20;;
5379;SDS011;2713;42.680;23.310;2024-02-14T01:43:09;8.77;;;6.67;;
5379;SDS011;2713;42.680;23.310;2024-02-14T01:45:37;9.50;;;7.10;;
5379;SDS011;2713;42.680;23.310;2024-02-14T01:48:04;8.50;;;6.93;;
5379;SDS011;2713;42.680;23.310;2024-02-14T01:50:32;9.37;;;6.47;;
5379;SDS011;2713;42.680;23.310;2024-02-14T01:53:00;9.00;;;6.97;;
5379;SDS011;2713;42.680;23.310;2024-02-14T01:55:29;6.87;;;6.00;;
5379;SDS011;2713;42.680;23.310;2024-02-14T01:57:55;7.83;;;6.13;;
5379;SDS011;2713;42.680;23.310;2024-02-14T02:00:23;7.93;;;6.67;;
5379;SDS011;2713;42.680;23.310;2024-02-14T02:02:53;8.30;;;6.70;;
5379;SDS011;2713;42.680;23.310;2024-02-14T02:05:21;8.43;;;6.80;;
5379;SDS011;2713;42.680;23.310;2024-02-14T02:07:47;8.70;;;6.60;;
5379;SDS011;2713;42.680;23.310;2024-02-14T02:10:14;8.50;;;6.73;;
5379;SDS011;2713;42.680;23.310;2024-02-14T02:12:43;7.27;;;6.23;;
5379;SDS011;2713;42.680;23.310;2024-02-14T02:15:09;7.30;;;6.43;;
5379;SDS011;2713;42.680;23.310;2024-02-14T02:17:38;8.00;;;6.77;;
5379;SDS011;2713;42.680;23.310;2024-02-14T02:20:05;7.97;;;7.17;;
5379;SDS011;2713;42.680;23.310;2024-02-14T02:22:34;8.40;;;6.60;;
5379;SDS011;2713;42.680;23.310;2024-02-14T02:25:03;7.53;;;6.70;;
5379;SDS011;2713;42.680;23.310;2024-02-14T02:27:32;8.77;;;6.60;;
5379;SDS011;2713;42.680;23.310;2024-02-14T02:30:00;7.10;;;6.13;;
5379;SDS011;2713;42.680;23.310;2024-02-14T02:32:29;7.03;;;5.90;;
5379;SDS011;2713;42.680;23.310;2024-02-14T02:34:56;8.33;;;6.27;;
5379;SDS011;2713;42.680;23.310;2024-02-14T02:37:23;7.77;;;6.33;;
5379;SDS011;2713;42.680;23.310;2024-02-14T02:39:50;9.60;;;6.63;;
5379;SDS011;2713;42.680;23.310;2024-02-14T02:42:18;8.10;;;6.63;;
5379;SDS011;2713;42.680;23.310;2024-02-14T02:44:46;8.40;;;6.73;;
5379;SDS011;2713;42.680;23.310;2024-02-14T02:47:13;8.27;;;6.70;;
5379;SDS011;2713;42.680;23.310;2024-02-14T02:49:42;8.53;;;7.47;;
5379;SDS011;2713;42.680;23.310;2024-02-14T02:52:09;8.40;;;7.47;;
5379;SDS011;2713;42.680;23.310;2024-02-14T02:54:36;10.07;;;7.57;;
5379;SDS011;2713;42.680;23.310;2024-02-14T02:57:04;7.03;;;6.27;;
5379;SDS011;2713;42.680;23.310;2024-02-14T02:59:33;8.27;;;6.77;;
5379;SDS011;2713;42.680;23.310;2024-02-14T03:02:00;9.10;;;7.20;;
5379;SDS011;2713;42.680;23.310;2024-02-14T03:04:27;8.33;;;7.23;;
5379;SDS011;2713;42.680;23.310;2024-02-14T03:06:54;6.93;;;6.30;;
5379;SDS011;2713;42.680;23.310;2024-02-14T03:09:21;7.90;;;7.10;;
5379;SDS011;2713;42.680;23.310;2024-02-14T03:11:48;6.93;;;6.23;;
5379;SDS011;2713;42.680;23.310;2024-02-14T03:14:15;7.13;;;6.40;;
5379;SDS011;2713;42.680;23.310;2024-02-14T03:16:43;9.23;;;6.60;;
5379;SDS011;2713;42.680;23.310;2024-02-14T03:19:10;7.60;;;6.57;;
5379;SDS011;2713;42.680;23.310;2024-02-14T03:21:36;8.20;;;6.70;;
5379;SDS011;2713;42.680;23.310;2024-02-14T03:24:03;8.40;;;7.33;;
5379;SDS011;2713;42.680;23.310;2024-02-14T03:26:31;9.37;;;6.70;;
5379;SDS011;2713;42.680;23.310;2024-02-14T03:28:58;9.50;;;7.03;;
5379;SDS011;2713;42.680;23.310;2024-02-14T03:31:26;9.73;;;7.10;;
5379;SDS011;2713;42.680;23.310;2024-02-14T03:33:54;10.80;;;7.83;;
5379;SDS011;2713;42.680;23.310;2024-02-14T03:36:21;8.77;;;7.13;;
5379;SDS011;2713;42.680;23.310;2024-02-14T03:38:49;8.00;;;7.20;;
5379;SDS011;2713;42.680;23.310;2024-02-14T03:41:16;8.50;;;7.10;;
5379;SDS011;2713;42.680;23.310;2024-02-14T03:43:43;10.37;;;7.20;;
5379;SDS011;2713;42.680;23.310;2024-02-14T03:46:10;10.27;;;7.70;;
5379;SDS011;2713;42.680;23.310;2024-02-14T03:48:38;9.27;;;6.87;;
5379;SDS011;2713;42.680;23.310;2024-02-14T03:51:07;10.03;;;7.00;;
5379;SDS011;2713;42.680;23.310;2024-02-14T03:53:34;8.30;;;7.47;;
5379;SDS011;2713;42.680;23.310;2024-02-14T03:56:02;7.83;;;6.57;;
5379;SDS011;2713;42.680;23.310;2024-02-14T03:58:30;9.70;;;7.63;;
5379;SDS011;2713;42.680;23.310;2024-02-14T04:00:58;8.90;;;6.30;;
5379;SDS011;2713;42.680;23.310;2024-02-14T04:03:24;9.93;;;7.60;;
5379;SDS011;2713;42.680;23.310;2024-02-14T04:05:54;9.33;;;7.80;;
5379;SDS011;2713;42.680;23.310;2024-02-14T04:08:22;9.83;;;6.57;;
5379;SDS011;2713;42.680;23.310;2024-02-14T04:10:49;9.03;;;7.73;;
5379;SDS011;2713;42.680;23.310;2024-02-14T04:13:19;9.83;;;7.40;;
5379;SDS011;2713;42.680;23.310;2024-02-14T04:15:46;10.73;;;8.23;;
5379;SDS011;2713;42.680;23.310;2024-02-14T04:18:13;9.10;;;7.53;;
5379;SDS011;2713;42.680;23.310;2024-02-14T04:20:41;9.40;;;7.47;;
5379;SDS011;2713;42.680;23.310;2024-02-14T04:23:09;9.60;;;7.70;;
5379;SDS011;2713;42.680;23.310;2024-02-14T04:25:37;11.73;;;7.97;;
5379;SDS011;2713;42.680;23.310;2024-02-14T04:28:04;10.60;;;8.13;;
5379;SDS011;2713;42.680;23.310;2024-02-14T04:30:31;8.77;;;7.80;;
5379;SDS011;2713;42.680;23.310;2024-02-14T04:32:58;12.17;;;9.33;;
5379;SDS011;2713;42.680;23.310;2024-02-14T04:35:24;12.80;;;8.90;;
5379;SDS011;2713;42.680;23.310;2024-02-14T04:37:51;10.40;;;8.20;;
5379;SDS011;2713;42.680;23.310;2024-02-14T04:40:18;11.83;;;8.97;;
5379;SDS011;2713;42.680;23.310;2024-02-14T04:42:46;11.80;;;8.00;;
5379;SDS011;2713;42.680;23.310;2024-02-14T04:45:13;10.67;;;8.97;;
5379;SDS011;2713;42.680;23.310;2024-02-14T04:47:40;13.13;;;10.13;;
5379;SDS011;2713;42.680;23.310;2024-02-14T04:50:08;13.70;;;8.87;;
5379;SDS011;2713;42.680;23.310;2024-02-14T04:52:35;10.60;;;8.70;;
5379;SDS011;2713;42.680;23.310;2024-02-14T04:55:02;11.13;;;8.50;;
5379;SDS011;2713;42.680;23.310;2024-02-14T04:57:29;12.50;;;9.60;;
5379;SDS011;2713;42.680;23.310;2024-02-14T04:59:58;10.20;;;8.33;;
5379;SDS011;2713;42.680;23.310;2024-02-14T05:02:24;11.40;;;9.40;;
5379;SDS011;2713;42.680;23.310;2024-02-14T05:04:51;11.93;;;9.90;;
5379;SDS011;2713;42.680;23.310;2024-02-14T05:07:19;12.60;;;9.33;;
5379;SDS011;2713;42.680;23.310;2024-02-14T05:09:46;14.00;;;10.60;;
5379;SDS011;2713;42.680;23.310;2024-02-14T05:12:15;14.10;;;10.70;;
5379;SDS011;2713;42.680;23.310;2024-02-14T05:14:42;12.40;;;9.37;;
5379;SDS011;2713;42.680;23.310;2024-02-14T05:17:10;11.70;;;9.23;;
5379;SDS011;2713;42.680;23.310;2024-02-14T05:19:37;14.50;;;9.83;;
5379;SDS011;2713;42.680;23.310;2024-02-14T05:22:03;14.77;;;10.37;;
5379;SDS011;2713;42.680;23.310;2024-02-14T05:24:30;13.10;;;10.03;;
5379;SDS011;2713;42.680;23.310;2024-02-14T05:26:57;15.87;;;10.30;;
5379;SDS011;2713;42.680;23.310;2024-02-14T05:29:24;13.43;;;10.60;;
5379;SDS011;2713;42.680;23.310;2024-02-14T05:31:50;13.00;;;9.80;;
5379;SDS011;2713;42.680;23.310;2024-02-14T05:34:21;12.27;;;9.57;;
5379;SDS011;2713;42.680;23.310;2024-02-14T05:36:48;12.67;;;10.37;;
5379;SDS011;2713;42.680;23.310;2024-02-14T05:39:16;14.17;;;10.07;;
5379;SDS011;2713;42.680;23.310;2024-02-14T05:41:42;12.93;;;10.40;;
5379;SDS011;2713;42.680;23.310;2024-02-14T05:44:09;12.43;;;9.97;;
5379;SDS011;2713;42.680;23.310;2024-02-14T05:46:36;15.43;;;10.00;;
5379;SDS011;2713;42.680;23.310;2024-02-14T05:49:03;13.73;;;10.30;;
5379;SDS011;2713;42.680;23.310;2024-02-14T05:51:31;13.87;;;10.23;;
5379;SDS011;2713;42.680;23.310;2024-02-14T05:53:58;13.10;;;9.77;;
5379;SDS011;2713;42.680;23.310;2024-02-14T05:56:25;13.00;;;9.50;;
5379;SDS011;2713;42.680;23.310;2024-02-14T05:58:51;12.60;;;9.87;;
5379;SDS011;2713;42.680;23.310;2024-02-14T06:01:18;13.33;;;9.90;;
5379;SDS011;2713;42.680;23.310;2024-02-14T06:03:45;16.83;;;10.10;;
5379;SDS011;2713;42.680;23.310;2024-02-14T06:06:12;11.63;;;9.07;;
5379;SDS011;2713;42.680;23.310;2024-02-14T06:08:40;11.27;;;8.30;;
5379;SDS011;2713;42.680;23.310;2024-02-14T06:11:07;13.90;;;9.80;;
5379;SDS011;2713;42.680;23.310;2024-02-14T06:13:34;13.53;;;9.53;;
5379;SDS011;2713;42.680;23.310;2024-02-14T06:16:01;11.27;;;9.03;;
5379;SDS011;2713;42.680;23.310;2024-02-14T06:18:28;11.13;;;9.73;;
5379;SDS011;2713;42.680;23.310;2024-02-14T06:20:54;11.27;;;8.60;;
5379;SDS011;2713;42.680;23.310;2024-02-14T06:23:21;13.30;;;9.70;;
5379;SDS011;2713;42.680;23.310;2024-02-14T06:25:49;13.73;;;9.93;;
5379;SDS011;2713;42.680;23.310;2024-02-14T06:28:16;10.67;;;9.03;;
5379;SDS011;2713;42.680;23.310;2024-02-14T06:30:43;12.00;;;9.10;;
5379;SDS011;2713;42.680;23.310;2024-02-14T06:33:09;13.50;;;9.60;;
5379;SDS011;2713;42.680;23.310;2024-02-14T06:35:36;10.27;;;8.87;;
5379;SDS011;2713;42.680;23.310;2024-02-14T06:38:03;10.63;;;7.97;;
5379;SDS011;2713;42.680;23.310;2024-02-14T06:40:30;12.90;;;8.83;;
5379;SDS011;2713;42.680;23.310;2024-02-14T06:42:59;14.90;;;10.77;;
5379;SDS011;2713;42.680;23.310;2024-02-14T06:45:26;11.40;;;9.40;;
5379;SDS011;2713;42.680;23.310;2024-02-14T06:47:53;11.50;;;9.77;;
5379;SDS011;2713;42.680;23.310;2024-02-14T06:50:20;13.07;;;9.60;;
5379;SDS011;2713;42.680;23.310;2024-02-14T06:52:47;13.23;;;9.20;;
5379;SDS011;2713;42.680;23.310;2024-02-14T06:55:13;11.57;;;8.80;;
5379;SDS011;2713;42.680;23.310;2024-02-14T06:57:40;10.53;;;8.00;;
5379;SDS011;2713;42.680;23.310;2024-02-14T07:00:09;10.37;;;8.23;;
5379;SDS011;2713;42.680;23.310;2024-02-14T07:02:37;15.87;;;8.47;;
5379;SDS011;2713;42.680;23.310;2024-02-14T07:05:04;9.33;;;7.80;;
5379;SDS011;2713;42.680;23.310;2024-02-14T07:07:33;8.67;;;7.70;;
5379;SDS011;2713;42.680;23.310;2024-02-14T07:09:59;9.07;;;7.30;;
5379;SDS011;2713;42.680;23.310;2024-02-14T07:12:26;9.40;;;8.07;;
5379;SDS011;2713;42.680;23.310;2024-02-14T07:14:55;11.00;;;8.83;;
5379;SDS011;2713;42.680;23.310;2024-02-14T07:17:23;8.83;;;7.43;;
5379;SDS011;2713;42.680;23.310;2024-02-14T07:19:50;9.10;;;7.53;;
5379;SDS011;2713;42.680;23.310;2024-02-14T07:22:17;9.53;;;7.70;;
5379;SDS011;2713;42.680;23.310;2024-02-14T07:24:44;9.80;;;7.83;;
5379;SDS011;2713;42.680;23.310;2024-02-14T07:27:12;9.43;;;7.20;;
5379;SDS011;2713;42.680;23.310;2024-02-14T07:29:39;12.30;;;7.17;;
5379;SDS011;2713;42.680;23.310;2024-02-14T07:32:06;9.43;;;7.60;;
5379;SDS011;2713;42.680;23.310;2024-02-14T07:34:34;10.00;;;7.60;;
5379;SDS011;2713;42.680;23.310;2024-02-14T07:37:04;9.70;;;7.40;;
5379;SDS011;2713;42.680;23.310;2024-02-14T07:39:31;7.83;;;7.03;;
5379;SDS011;2713;42.680;23.310;2024-02-14T07:41:59;8.10;;;6.57;;
5379;SDS011;2713;42.680;23.310;2024-02-14T07:44:26;9.00;;;8.10;;
5379;SDS011;2713;42.680;23.310;2024-02-14T07:46:53;13.50;;;8.10;;
5379;SDS011;2713;42.680;23.310;2024-02-14T07:49:20;8.43;;;7.20;;
5379;SDS011;2713;42.680;23.310;2024-02-14T07:51:48;8.57;;;7.40;;
5379;SDS011;2713;42.680;23.310;2024-02-14T07:54:15;8.37;;;7.27;;
5379;SDS011;2713;42.680;23.310;2024-02-14T07:56:41;8.07;;;6.53;;
5379;SDS011;2713;42.680;23.310;2024-02-14T07:59:08;10.00;;;8.13;;
5379;SDS011;2713;42.680;23.310;2024-02-14T08:01:35;8.60;;;7.43;;
5379;SDS011;2713;42.680;23.310;2024-02-14T08:04:02;10.23;;;7.23;;
5379;SDS011;2713;42.680;23.310;2024-02-14T08:06:29;12.03;;;7.80;;
5379;SDS011;2713;42.680;23.310;2024-02-14T08:08:57;9.33;;;7.53;;
5379;SDS011;2713;42.680;23.310;2024-02-14T08:11:27;9.40;;;7.43;;
5379;SDS011;2713;42.680;23.310;2024-02-14T08:13:54;10.73;;;7.50;;
5379;SDS011;2713;42.680;23.310;2024-02-14T08:16:21;8.30;;;7.30;;
5379;SDS011;2713;42.680;23.310;2024-02-14T08:18:47;8.97;;;8.07;;
5379;SDS011;2713;42.680;23.310;2024-02-14T08:21:16;8.10;;;7.17;;
5379;SDS011;2713;42.680;23.310;2024-02-14T08:23:42;9.27;;;7.43;;
5379;SDS011;2713;42.680;23.310;2024-02-14T08:26:11;8.93;;;6.97;;
5379;SDS011;2713;42.680;23.310;2024-02-14T08:28:37;8.63;;;7.23;;
5379;SDS011;2713;42.680;23.310;2024-02-14T08:31:09;7.67;;;6.90;;
5379;SDS011;2713;42.680;23.310;2024-02-14T08:33:36;7.67;;;6.90;;
5379;SDS011;2713;42.680;23.310;2024-02-14T08:36:03;8.40;;;7.07;;
5379;SDS011;2713;42.680;23.310;2024-02-14T08:38:31;8.30;;;7.30;;
5379;SDS011;2713;42.680;23.310;2024-02-14T08:40:59;8.63;;;7.37;;
5379;SDS011;2713;42.680;23.310;2024-02-14T08:43:27;8.20;;;7.40;;
5379;SDS011;2713;42.680;23.310;2024-02-14T08:45:54;11.03;;;7.83;;
5379;SDS011;2713;42.680;23.310;2024-02-14T08:48:21;8.97;;;7.63;;
5379;SDS011;2713;42.680;23.310;2024-02-14T08:50:48;9.57;;;8.00;;
5379;SDS011;2713;42.680;23.310;2024-02-14T08:53:15;7.70;;;6.90;;
5379;SDS011;2713;42.680;23.310;2024-02-14T08:55:42;8.37;;;7.33;;
5379;SDS011;2713;42.680;23.310;2024-02-14T08:58:09;9.50;;;8.00;;
5379;SDS011;2713;42.680;23.310;2024-02-14T09:00:38;8.03;;;7.23;;
5379;SDS011;2713;42.680;23.310;2024-02-14T09:03:06;9.30;;;7.40;;
5379;SDS011;2713;42.680;23.310;2024-02-14T09:05:32;8.73;;;7.37;;
5379;SDS011;2713;42.680;23.310;2024-02-14T09:07:59;12.83;;;7.13;;
5379;SDS011;2713;42.680;23.310;2024-02-14T09:10:26;8.63;;;7.73;;
5379;SDS011;2713;42.680;23.310;2024-02-14T09:12:53;8.07;;;7.03;;
5379;SDS011;2713;42.680;23.310;2024-02-14T09:15:20;8.10;;;7.30;;
5379;SDS011;2713;42.680;23.310;2024-02-14T09:17:49;11.10;;;7.77;;
5379;SDS011;2713;42.680;23.310;2024-02-14T09:20:17;10.57;;;8.47;;
5379;SDS011;2713;42.680;23.310;2024-02-14T09:22:45;7.30;;;6.60;;
5379;SDS011;2713;42.680;23.310;2024-02-14T09:25:12;10.10;;;7.83;;
5379;SDS011;2713;42.680;23.310;2024-02-14T09:27:39;10.00;;;7.90;;
5379;SDS011;2713;42.680;23.310;2024-02-14T09:30:06;9.83;;;7.50;;
5379;SDS011;2713;42.680;23.310;2024-02-14T09:32:34;11.47;;;8.23;;
5379;SDS011;2713;42.680;23.310;2024-02-14T09:35:02;8.67;;;7.67;;
5379;SDS011;2713;42.680;23.310;2024-02-14T09:37:31;9.30;;;7.60;;
5379;SDS011;2713;42.680;23.310;2024-02-14T09:39:58;8.87;;;7.90;;
5379;SDS011;2713;42.680;23.310;2024-02-14T09:42:27;7.67;;;6.70;;
5379;SDS011;2713;42.680;23.310;2024-02-14T09:45:01;8.37;;;7.10;;
5379;SDS011;2713;42.680;23.310;2024-02-14T09:47:29;7.13;;;6.43;;
5379;SDS011;2713;42.680;23.310;2024-02-14T09:49:58;10.37;;;7.30;;
5379;SDS011;2713;42.680;23.310;2024-02-14T09:52:29;10.63;;;8.00;;
5379;SDS011;2713;42.680;23.310;2024-02-14T09:54:58;8.00;;;6.70;;
5379;SDS011;2713;42.680;23.310;2024-02-14T09:57:28;8.90;;;8.00;;
5379;SDS011;2713;42.680;23.310;2024-02-14T09:59:56;9.10;;;8.07;;
5379;SDS011;2713;42.680;23.310;2024-02-14T10:02:23;9.17;;;8.00;;
5379;SDS011;2713;42.680;23.310;2024-02-14T10:04:50;9.60;;;7.93;;
5379;SDS011;2713;42.680;23.310;2024-02-14T10:07:17;8.20;;;6.90;;
5379;SDS011;2713;42.680;23.310;2024-02-14T10:09:45;8.40;;;7.30;;
5379;SDS011;2713;42.680;23.310;2024-02-14T10:12:12;10.30;;;7.97;;
5379;SDS011;2713;42.680;23.310;2024-02-14T10:15:04;9.20;;;7.90;;
5379;SDS011;2713;42.680;23.310;2024-02-14T10:17:32;9.03;;;7.30;;
5379;SDS011;2713;42.680;23.310;2024-02-14T10:20:00;8.43;;;6.80;;
5379;SDS011;2713;42.680;23.310;2024-02-14T10:22:32;10.47;;;7.57;;
5379;SDS011;2713;42.680;23.310;2024-02-14T10:25:01;7.87;;;7.07;;
5379;SDS011;2713;42.680;23.310;2024-02-14T10:27:29;7.63;;;6.73;;
5379;SDS011;2713;42.680;23.310;2024-02-14T10:29:56;8.17;;;6.00;;
5379;SDS011;2713;42.680;23.310;2024-02-14T10:32:23;7.10;;;6.30;;
5379;SDS011;2713;42.680;23.310;2024-02-14T10:34:50;7.00;;;6.00;;
5379;SDS011;2713;42.680;23.310;2024-02-14T10:37:17;7.47;;;6.23;;
5379;SDS011;2713;42.680;23.310;2024-02-14T10:39:47;7.60;;;6.77;;
5379;SDS011;2713;42.680;23.310;2024-02-14T10:42:19;10.77;;;7.20;;
5379;SDS011;2713;42.680;23.310;2024-02-14T10:44:45;7.90;;;6.73;;
5379;SDS011;2713;42.680;23.310;2024-02-14T10:47:14;7.80;;;7.00;;
5379;SDS011;2713;42.680;23.310;2024-02-14T10:49:46;7.60;;;6.90;;
5379;SDS011;2713;42.680;23.310;2024-02-14T10:52:15;6.70;;;6.00;;
5379;SDS011;2713;42.680;23.310;2024-02-14T10:54:43;8.80;;;6.33;;
5379;SDS011;2713;42.680;23.310;2024-02-14T10:57:20;8.47;;;6.90;;
5379;SDS011;2713;42.680;23.310;2024-02-14T10:59:47;9.47;;;6.43;;
5379;SDS011;2713;42.680;23.310;2024-02-14T11:02:15;8.13;;;6.20;;
5379;SDS011;2713;42.680;23.310;2024-02-14T11:04:42;7.03;;;6.07;;
5379;SDS011;2713;42.680;23.310;2024-02-14T11:07:10;7.70;;;6.90;;
5379;SDS011;2713;42.680;23.310;2024-02-14T11:09:37;12.93;;;6.53;;
5379;SDS011;2713;42.680;23.310;2024-02-14T11:12:06;9.73;;;6.83;;
5379;SDS011;2713;42.680;23.310;2024-02-14T11:14:36;7.80;;;6.80;;
5379;SDS011;2713;42.680;23.310;2024-02-14T11:17:04;9.83;;;7.10;;
5379;SDS011;2713;42.680;23.310;2024-02-14T11:19:34;7.87;;;6.90;;
5379;SDS011;2713;42.680;23.310;2024-02-14T11:22:09;8.40;;;6.80;;
5379;SDS011;2713;42.680;23.310;2024-02-14T11:24:38;9.90;;;6.83;;
5379;SDS011;2713;42.680;23.310;2024-02-14T11:27:09;9.87;;;7.27;;
5379;SDS011;2713;42.680;23.310;2024-02-14T11:29:39;11.23;;;7.07;;
5379;SDS011;2713;42.680;23.310;2024-02-14T11:32:07;7.60;;;6.80;;
5379;SDS011;2713;42.680;23.310;2024-02-14T11:34:35;9.53;;;6.93;;
5379;SDS011;2713;42.680;23.310;2024-02-14T11:37:01;8.50;;;7.33;;
5379;SDS011;2713;42.680;23.310;2024-02-14T11:39:29;7.83;;;7.03;;
5379;SDS011;2713;42.680;23.310;2024-02-14T11:41:56;11.57;;;7.03;;
5379;SDS011;2713;42.680;23.310;2024-02-14T11:44:24;7.73;;;6.47;;
5379;SDS011;2713;42.680;23.310;2024-02-14T11:46:53;8.43;;;7.07;;
5379;SDS011;2713;42.680;23.310;2024-02-14T11:49:20;7.43;;;6.63;;
5379;SDS011;2713;42.680;23.310;2024-02-14T11:51:48;8.33;;;6.80;;
5379;SDS011;2713;42.680;23.310;2024-02-14T11:54:18;7.93;;;7.10;;
5379;SDS011;2713;42.680;23.310;2024-02-14T11:56:46;7.93;;;6.40;;
5379;SDS011;2713;42.680;23.310;2024-02-14T11:59:12;9.93;;;6.70;;
5379;SDS011;2713;42.680;23.310;2024-02-14T12:01:40;7.53;;;6.50;;
5379;SDS011;2713;42.680;23.310;2024-02-14T12:04:09;9.53;;;6.83;;
5379;SDS011;2713;42.680;23.310;2024-02-14T12:06:38;6.63;;;5.97;;
5379;SDS011;2713;42.680;23.310;2024-02-14T12:09:07;7.83;;;6.47;;
5379;SDS011;2713;42.680;23.310;2024-02-14T12:11:35;8.73;;;7.83;;
5379;SDS011;2713;42.680;23.310;2024-02-14T12:14:03;10.00;;;7.10;;
5379;SDS011;2713;42.680;23.310;2024-02-14T12:16:31;8.90;;;6.83;;
5379;SDS011;2713;42.680;23.310;2024-02-14T12:19:03;11.17;;;6.60;;
5379;SDS011;2713;42.680;23.310;2024-02-14T12:21:35;7.60;;;6.77;;
5379;SDS011;2713;42.680;23.310;2024-02-14T12:24:04;8.00;;;6.47;;
5379;SDS011;2713;42.680;23.310;2024-02-14T12:26:33;7.63;;;6.50;;
5379;SDS011;2713;42.680;23.310;2024-02-14T12:29:01;9.60;;;6.73;;
5379;SDS011;2713;42.680;23.310;2024-02-14T12:31:28;8.37;;;6.70;;
5379;SDS011;2713;42.680;23.310;2024-02-14T12:33:56;7.77;;;6.97;;
5379;SDS011;2713;42.680;23.310;2024-02-14T12:36:25;8.93;;;6.70;;
5379;SDS011;2713;42.680;23.310;2024-02-14T12:38:54;8.27;;;6.93;;
5379;SDS011;2713;42.680;23.310;2024-02-14T12:41:21;9.20;;;7.33;;
5379;SDS011;2713;42.680;23.310;2024-02-14T12:43:48;10.87;;;7.87;;
5379;SDS011;2713;42.680;23.310;2024-02-14T12:46:15;10.13;;;7.23;;
5379;SDS011;2713;42.680;23.310;2024-02-14T12:48:42;9.63;;;6.60;;
5379;SDS011;2713;42.680;23.310;2024-02-14T12:51:09;9.90;;;6.77;;
5379;SDS011;2713;42.680;23.310;2024-02-14T12:53:36;8.50;;;6.73;;
5379;SDS011;2713;42.680;23.310;2024-02-14T12:56:05;10.37;;;7.37;;
5379;SDS011;2713;42.680;23.310;2024-02-14T12:58:33;11.60;;;7.20;;
5379;SDS011;2713;42.680;23.310;2024-02-14T13:01:00;8.13;;;6.47;;
5379;SDS011;2713;42.680;23.310;2024-02-14T13:03:31;10.10;;;7.00;;
5379;SDS011;2713;42.680;23.310;2024-02-14T13:05:58;7.37;;;6.43;;
5379;SDS011;2713;42.680;23.310;2024-02-14T13:08:25;9.43;;;6.33;;
5379;SDS011;2713;42.680;23.310;2024-02-14T13:10:52;9.27;;;6.87;;
5379;SDS011;2713;42.680;23.310;2024-02-14T13:13:20;9.20;;;7.47;;
5379;SDS011;2713;42.680;23.310;2024-02-14T13:15:47;8.90;;;6.70;;
5379;SDS011;2713;42.680;23.310;2024-02-14T13:18:14;12.47;;;7.50;;
5379;SDS011;2713;42.680;23.310;2024-02-14T13:20:41;7.70;;;6.90;;
5379;SDS011;2713;42.680;23.310;2024-02-14T13:23:09;8.20;;;6.93;;
5379;SDS011;2713;42.680;23.310;2024-02-14T13:25:36;10.50;;;6.80;;
5379;SDS011;2713;42.680;23.310;2024-02-14T13:28:03;10.10;;;7.57;;
5379;SDS011;2713;42.680;23.310;2024-02-14T13:30:32;9.20;;;7.40;;
5379;SDS011;2713;42.680;23.310;2024-02-14T13:32:58;10.33;;;7.53;;
5379;SDS011;2713;42.680;23.310;2024-02-14T13:35:25;10.03;;;7.70;;
5379;SDS011;2713;42.680;23.310;2024-02-14T13:37:52;7.90;;;7.10;;
5379;SDS011;2713;42.680;23.310;2024-02-14T13:40:19;9.53;;;6.97;;
5379;SDS011;2713;42.680;23.310;2024-02-14T13:42:46;8.93;;;7.30;;
5379;SDS011;2713;42.680;23.310;2024-02-14T13:45:13;9.67;;;7.30;;
5379;SDS011;2713;42.680;23.310;2024-02-14T13:47:42;9.03;;;7.13;;
5379;SDS011;2713;42.680;23.310;2024-02-14T13:50:10;10.00;;;7.60;;
5379;SDS011;2713;42.680;23.310;2024-02-14T13:52:37;8.47;;;6.80;;
5379;SDS011;2713;42.680;23.310;2024-02-14T13:55:04;9.60;;;7.60;;
5379;SDS011;2713;42.680;23.310;2024-02-14T13:57:33;7.77;;;7.00;;
5379;SDS011;2713;42.680;23.310;2024-02-14T14:00:03;8.00;;;6.90;;
5379;SDS011;2713;42.680;23.310;2024-02-14T14:02:37;10.80;;;8.10;;
5379;SDS011;2713;42.680;23.310;2024-02-14T14:05:08;11.53;;;8.30;;
5379;SDS011;2713;42.680;23.310;2024-02-14T14:07:35;9.60;;;6.90;;
5379;SDS011;2713;42.680;23.310;2024-02-14T14:10:02;10.90;;;7.17;;
5379;SDS011;2713;42.680;23.310;2024-02-14T14:12:29;9.43;;;6.13;;
5379;SDS011;2713;42.680;23.310;2024-02-14T14:14:56;8.60;;;6.40;;
5379;SDS011;2713;42.680;23.310;2024-02-14T14:17:23;13.83;;;6.73;;
5379;SDS011;2713;42.680;23.310;2024-02-14T14:19:51;7.60;;;6.20;;
5379;SDS011;2713;42.680;23.310;2024-02-14T14:22:20;7.20;;;6.20;;
5379;SDS011;2713;42.680;23.310;2024-02-14T14:24:47;11.93;;;6.60;;
5379;SDS011;2713;42.680;23.310;2024-02-14T14:27:15;7.23;;;6.50;;
5379;SDS011;2713;42.680;23.310;2024-02-14T14:29:42;7.23;;;6.33;;
5379;SDS011;2713;42.680;23.310;2024-02-14T14:32:09;11.13;;;5.97;;
5379;SDS011;2713;42.680;23.310;2024-02-14T14:34:36;10.80;;;6.70;;
5379;SDS011;2713;42.680;23.310;2024-02-14T14:37:03;10.10;;;6.60;;
5379;SDS011;2713;42.680;23.310;2024-02-14T14:39:32;8.27;;;7.40;;
5379;SDS011;2713;42.680;23.310;2024-02-14T14:41:59;14.93;;;7.23;;
5379;SDS011;2713;42.680;23.310;2024-02-14T14:44:26;9.10;;;6.20;;
5379;SDS011;2713;42.680;23.310;2024-02-14T14:46:55;8.40;;;7.00;;
5379;SDS011;2713;42.680;23.310;2024-02-14T14:49:22;8.77;;;6.53;;
5379;SDS011;2713;42.680;23.310;2024-02-14T14:51:48;8.37;;;6.70;;
5379;SDS011;2713;42.680;23.310;2024-02-14T14:54:15;9.73;;;7.37;;
5379;SDS011;2713;42.680;23.310;2024-02-14T14:56:44;9.47;;;7.40;;